createdAt,value
2022-08-21T00:02:28.985Z,14.10
2022-08-21T00:07:28.855Z,13.00
2022-08-21T00:12:28.789Z,13.60
2022-08-21T00:17:28.726Z,13.89
2022-08-21T00:22:28.660Z,13.69
2022-08-21T00:27:28.595Z,13.69
2022-08-21T00:32:28.540Z,13.80
2022-08-21T00:37:28.457Z,13.00
2022-08-21T00:42:28.408Z,12.69
2022-08-21T00:47:28.336Z,13.30
2022-08-21T00:52:28.285Z,12.80
2022-08-21T00:57:28.193Z,13.39
2022-08-21T01:02:28.138Z,13.39
2022-08-21T01:07:28.068Z,11.69
2022-08-21T01:12:28.010Z,11.69
2022-08-21T01:17:27.948Z,12.50
2022-08-21T01:22:27.891Z,11.39
2022-08-21T01:27:27.810Z,11.50
2022-08-21T01:32:27.760Z,10.89
2022-08-21T01:37:27.677Z,11.80
2022-08-21T01:42:27.625Z,12.00
2022-08-21T01:47:27.553Z,11.50
2022-08-21T01:52:27.493Z,11.50
2022-08-21T01:57:27.425Z,12.19
2022-08-21T02:02:27.370Z,11.00
2022-08-21T02:07:27.304Z,11.50
2022-08-21T02:12:27.246Z,11.60
2022-08-21T02:17:27.185Z,10.69
2022-08-21T02:22:27.117Z,10.39
2022-08-21T02:27:27.636Z,11.60
2022-08-21T02:32:27.186Z,10.30
2022-08-21T02:37:26.931Z,10.39
2022-08-21T02:42:26.871Z,10.89
2022-08-21T02:47:26.794Z,9.10
2022-08-21T02:52:26.747Z,9.69
2022-08-21T02:57:26.675Z,8.80
2022-08-21T03:02:26.783Z,8.89
2022-08-21T03:07:26.532Z,8.50
2022-08-21T03:12:27.798Z,9.69
2022-08-21T03:17:29.968Z,8.10
2022-08-21T03:22:26.351Z,8.60
2022-08-21T03:27:26.296Z,7.40
2022-08-21T03:32:26.235Z,7.69
2022-08-21T03:37:26.163Z,7.80
2022-08-21T03:42:26.108Z,7.69
2022-08-21T03:47:26.025Z,7.30
2022-08-21T03:52:25.973Z,7.59
2022-08-21T03:57:25.907Z,7.30
2022-08-21T04:02:25.841Z,7.50
2022-08-21T04:07:25.773Z,7.19
2022-08-21T04:12:25.714Z,7.59
2022-08-21T04:17:25.655Z,7.19
2022-08-21T04:22:25.589Z,6.40
2022-08-21T04:27:25.528Z,6.69
2022-08-21T04:32:25.461Z,7.19
2022-08-21T04:37:25.401Z,6.50
2022-08-21T04:42:25.343Z,6.30
2022-08-21T04:47:41.619Z,5.69
2022-08-21T04:52:26.241Z,5.69
2022-08-21T04:57:25.125Z,6.00
2022-08-21T05:02:26.108Z,5.30
2022-08-21T05:07:42.288Z,5.30
2022-08-21T05:12:25.979Z,9.10
2022-08-21T05:17:24.869Z,7.40
2022-08-21T05:22:24.814Z,6.00
2022-08-21T05:27:24.744Z,5.80
2022-08-21T05:32:24.684Z,6.09
2022-08-21T05:37:24.618Z,5.50
2022-08-21T05:42:24.550Z,5.80
2022-08-21T05:47:24.486Z,6.09
2022-08-21T05:52:24.431Z,7.00
2022-08-21T05:57:24.348Z,7.19
2022-08-21T06:02:24.298Z,6.40
2022-08-21T06:07:24.231Z,6.30
2022-08-21T06:12:24.161Z,20.39
2022-08-21T06:17:24.092Z,8.30
2022-08-21T06:22:24.106Z,5.59
2022-08-21T06:27:26.663Z,4.09
2022-08-21T06:32:23.919Z,4.00
2022-08-21T06:37:23.841Z,9.39
2022-08-21T06:42:26.905Z,5.50
2022-08-21T06:47:23.719Z,3.79
2022-08-21T06:52:23.659Z,3.20
2022-08-21T06:57:23.692Z,2.70
2022-08-21T07:02:23.519Z,2.79
2022-08-21T07:07:23.437Z,3.59
2022-08-21T07:12:23.374Z,3.09
2022-08-21T07:17:23.301Z,3.00
2022-08-21T07:22:23.242Z,2.70
2022-08-21T07:27:23.175Z,2.70
2022-08-21T07:32:23.109Z,5.40
2022-08-21T07:37:23.036Z,3.50
2022-08-21T07:42:22.974Z,2.50
2022-08-21T07:47:29.564Z,2.00
2022-08-21T07:52:23.869Z,2.09
2022-08-21T07:57:22.779Z,0.90
2022-08-21T08:02:22.713Z,1.29
2022-08-21T08:07:22.652Z,1.20
2022-08-21T08:12:22.591Z,1.20
2022-08-21T08:17:22.510Z,1.79
2022-08-21T08:22:22.466Z,2.59
2022-08-21T08:27:22.381Z,1.00
2022-08-21T08:32:22.326Z,1.10
2022-08-21T08:37:22.262Z,2.09
2022-08-21T08:42:32.764Z,1.10
2022-08-21T08:47:23.169Z,2.70
2022-08-21T08:52:22.091Z,1.00
2022-08-21T08:57:22.019Z,1.00
2022-08-21T09:02:21.996Z,1.00
2022-08-21T09:07:21.957Z,0.90
2022-08-21T09:12:21.825Z,1.00
2022-08-21T09:17:21.767Z,0.90
2022-08-21T09:22:21.752Z,0.80
2022-08-21T09:27:21.626Z,1.00
2022-08-21T09:32:21.565Z,1.00
2022-08-21T09:37:21.493Z,1.00
2022-08-21T09:42:21.447Z,1.20
2022-08-21T09:47:26.233Z,0.60
2022-08-21T09:52:21.309Z,1.00
2022-08-21T09:57:21.247Z,0.90
2022-08-21T10:02:21.191Z,1.00
2022-08-21T10:07:21.118Z,0.90
2022-08-21T10:12:21.053Z,1.00
2022-08-21T10:17:20.984Z,0.70
2022-08-21T10:22:20.935Z,1.50
2022-08-21T10:27:21.014Z,1.00
2022-08-21T10:32:26.250Z,0.70
2022-08-21T10:37:20.735Z,0.80
2022-08-21T10:42:22.663Z,0.90
2022-08-21T10:47:20.597Z,0.80
2022-08-21T10:52:20.543Z,0.80
2022-08-21T10:57:32.109Z,1.00
2022-08-21T11:02:21.448Z,1.50
2022-08-21T11:07:20.353Z,1.10
2022-08-21T11:12:20.285Z,0.80
2022-08-21T11:17:22.149Z,0.80
2022-08-21T11:22:20.153Z,0.90
2022-08-21T11:27:20.085Z,0.80
2022-08-21T11:32:20.035Z,0.60
2022-08-21T11:37:19.953Z,1.10
2022-08-21T11:42:19.907Z,0.90
2022-08-21T11:47:19.824Z,1.10
2022-08-21T11:52:19.769Z,1.39
2022-08-21T11:57:19.696Z,1.10
2022-08-21T12:02:19.696Z,1.29
2022-08-21T12:07:19.582Z,1.60
2022-08-21T12:12:19.513Z,1.79
2022-08-21T12:17:20.456Z,1.39
2022-08-21T12:22:19.390Z,1.29
2022-08-21T12:27:19.321Z,1.50
2022-08-21T12:32:19.273Z,1.79
2022-08-21T12:37:19.198Z,1.10
2022-08-21T12:42:19.138Z,1.60
2022-08-21T12:47:19.065Z,1.29
2022-08-21T12:52:19.005Z,1.60
2022-08-21T12:57:18.932Z,1.20
2022-08-21T13:02:18.976Z,1.29
2022-08-21T13:07:19.056Z,1.60
2022-08-21T13:12:18.754Z,1.39
2022-08-21T13:17:23.453Z,2.20
2022-08-21T13:22:34.075Z,2.90
2022-08-21T13:27:19.584Z,1.60
2022-08-21T13:32:18.503Z,1.70
2022-08-21T13:37:18.425Z,1.70
2022-08-21T13:42:18.424Z,1.00
2022-08-21T13:47:18.342Z,1.79
2022-08-21T13:52:18.242Z,1.50
2022-08-21T13:57:18.182Z,1.20
2022-08-21T14:02:18.112Z,1.39
2022-08-21T14:07:18.050Z,1.10
2022-08-21T14:12:23.375Z,1.20
2022-08-21T14:17:24.598Z,3.50
2022-08-21T14:22:17.858Z,1.20
2022-08-21T14:27:17.785Z,1.10
2022-08-21T14:32:21.880Z,1.20
2022-08-21T14:37:17.657Z,2.00
2022-08-21T14:42:17.597Z,1.50
2022-08-21T14:47:17.520Z,1.39
2022-08-21T14:52:17.467Z,1.20
2022-08-21T14:57:17.393Z,1.29
2022-08-21T15:02:17.339Z,1.10
2022-08-21T15:07:17.256Z,1.70
2022-08-21T15:12:17.207Z,1.29
2022-08-21T15:17:17.132Z,1.39
2022-08-21T15:22:18.972Z,1.10
2022-08-21T15:27:16.986Z,1.29
2022-08-21T15:32:16.929Z,1.20
2022-08-21T15:37:16.852Z,1.10
2022-08-21T15:42:16.793Z,1.29
2022-08-21T15:47:16.731Z,1.79
2022-08-21T15:52:16.665Z,1.00
2022-08-21T15:57:16.592Z,1.20
2022-08-21T16:02:16.545Z,1.29
2022-08-21T16:07:16.462Z,1.70
2022-08-21T16:12:16.393Z,1.29
2022-08-21T16:17:16.317Z,1.29
2022-08-21T16:22:16.262Z,1.20
2022-08-21T16:27:16.185Z,1.29
2022-08-21T16:32:16.127Z,1.10
2022-08-21T16:37:21.879Z,1.10
2022-08-21T16:42:15.993Z,1.39
2022-08-21T16:47:26.752Z,1.20
2022-08-21T16:52:16.888Z,1.10
2022-08-21T16:57:15.785Z,1.20
2022-08-21T17:02:15.738Z,1.20
2022-08-21T17:07:15.667Z,1.50
2022-08-21T17:12:15.601Z,1.10
2022-08-21T17:17:15.547Z,1.20
2022-08-21T17:22:15.474Z,1.50
2022-08-21T17:27:15.419Z,1.50
2022-08-21T17:32:15.345Z,1.50
2022-08-21T17:37:15.277Z,1.29
2022-08-21T17:42:15.217Z,1.50
2022-08-21T17:47:15.155Z,1.00
2022-08-21T17:52:15.092Z,1.39
2022-08-21T17:57:15.020Z,1.29
2022-08-21T18:02:20.146Z,1.70
2022-08-21T18:07:30.908Z,1.29
2022-08-21T18:12:15.865Z,1.20
2022-08-21T18:17:14.780Z,1.60
2022-08-21T18:22:14.727Z,1.50
2022-08-21T18:27:14.646Z,1.29
2022-08-21T18:32:30.463Z,1.39
2022-08-21T18:37:15.554Z,1.39
2022-08-21T18:42:14.466Z,1.39
2022-08-21T18:47:14.441Z,1.60
2022-08-21T18:52:17.766Z,1.39
2022-08-21T18:57:14.263Z,1.50
2022-08-21T19:02:14.198Z,1.39
2022-08-21T19:07:14.422Z,1.90
2022-08-21T19:12:14.760Z,1.90
2022-08-21T19:17:14.001Z,1.70
2022-08-21T19:22:13.939Z,1.70
2022-08-21T19:27:13.871Z,1.29
2022-08-21T19:32:13.807Z,1.90
2022-08-21T19:37:13.750Z,1.50
2022-08-21T19:42:13.676Z,2.09
2022-08-21T19:47:13.850Z,1.60
2022-08-21T19:52:13.957Z,1.60
2022-08-21T19:57:13.481Z,1.20
2022-08-21T20:02:13.419Z,1.50
2022-08-21T20:07:13.359Z,1.39
2022-08-21T20:12:13.277Z,1.70
2022-08-21T20:17:13.226Z,1.39
2022-08-21T20:22:13.181Z,1.79
2022-08-21T20:27:13.140Z,1.50
2022-08-21T20:32:13.017Z,1.70
2022-08-21T20:37:12.981Z,1.60
2022-08-21T20:42:12.889Z,1.70
2022-08-21T20:47:12.835Z,2.00
2022-08-21T20:57:14.144Z,2.79
2022-08-21T21:02:12.831Z,7.00
2022-08-21T21:07:12.584Z,2.09
2022-08-21T21:12:12.514Z,2.00
2022-08-21T21:17:12.446Z,2.20
2022-08-21T21:22:12.376Z,2.09
2022-08-21T21:27:12.329Z,2.20
2022-08-21T21:32:17.972Z,2.20
2022-08-21T21:37:12.189Z,2.00
2022-08-21T21:42:12.106Z,2.90
2022-08-21T21:47:12.055Z,2.09
2022-08-21T21:52:11.969Z,2.20
2022-08-21T21:57:11.909Z,2.29
2022-08-21T22:02:11.838Z,2.20
2022-08-21T22:07:11.792Z,1.90
2022-08-21T22:12:11.715Z,2.29
2022-08-21T22:17:11.647Z,2.50
2022-08-21T22:22:11.572Z,2.20
2022-08-21T22:27:11.533Z,2.40
2022-08-21T22:32:11.515Z,3.00
2022-08-21T22:37:11.392Z,3.00
2022-08-21T22:42:11.380Z,3.00
2022-08-21T22:47:11.279Z,2.50
2022-08-21T22:52:11.201Z,2.29
2022-08-21T22:57:11.149Z,2.40
2022-08-21T23:02:12.547Z,2.40
2022-08-21T23:07:11.010Z,2.09
2022-08-21T23:12:21.267Z,2.20
2022-08-21T23:22:11.853Z,2.70
2022-08-21T23:27:10.915Z,2.29
2022-08-21T23:32:10.888Z,2.00
2022-08-21T23:37:10.887Z,2.50
2022-08-21T23:42:10.915Z,2.40
2022-08-21T23:47:10.897Z,2.09
2022-08-21T23:52:10.881Z,2.09
2022-08-21T23:57:10.644Z,2.29
